Terminal Aerodrome Forecast
Issued by NWS

Home | Current Version | Previous Version | Text Only | Print | Product List | Glossary On
Versions: 1 2 3 4 5 6 7 8 9 10 11 12 13 14 15
000
FTUS43 KDDC 131100
TAFGCK
TAF
KGCK 131120Z 1312/1412 36012KT P6SM SKC
     FM131400 36025G33KT P6SM OVC020
      TEMPO 1314/1317 -SHRA OVC015
     FM140400 36018G25KT 3SM -SN OVC007=

USA.gov is the U.S. government's official web portal to all federal, state and local government web resources and services.